Akeeva — WDE7272 — position and weather

sailwx.info

Track history (hours):
 
Tides and Currents Weather Stations Pressure Air Temp Water Temp Dewpoint Dewpoint Depression Visibility Wind Speed Wind Dir Waves Ship Positions

Akeeva

Owner: Cann, John P, Vancouver, WA. More information available from US FCC via Universal Licensing System and Coast Guard Vessel Documentation Center.

Last reported at 2015-Jul-30 23:20 UTC. Time now 2015-Jul-31 01:06 UTC.
Position N 47°41' W 122°24'.

Length 16 m.

Type: Pleasure craft. MMSI: 367391170.

Date/timePositionNaut miles runAvg speedWind from/ knotsBaromVisibWave heightAir tempDewpointWater temp
2015-Jul-30 23:20N 47°41' W 122°24'0 0.0
2015-Jul-30 22:43N 47°41' W 122°24'0 0.0
2015-Jul-29 21:08N 47°41' W 122°24'0 0.0
2015-Jul-29 21:08N 47°41' W 122°24'0 0.0
2015-Jul-29 20:32N 47°41' W 122°24'0 0.0
2015-Jul-29 20:29N 47°41' W 122°24'0 0.0
2015-Jul-29 19:32N 47°41' W 122°24'0 0.0
2015-Jul-29 18:38N 47°41' W 122°24'0 0.0
2015-Jul-29 18:32N 47°41' W 122°24'0 0.0
2015-Jul-29 18:23N 47°41' W 122°24'0 0.0
2015-Jul-29 17:29N 47°41' W 122°24'0 0.0
2015-Jul-29 17:23N 47°41' W 122°24'0 0.0
2015-Jul-29 02:29N 47°41' W 122°24'0 0.0
2015-Jul-29 02:26N 47°41' W 122°24'0 0.0
2015-Jul-29 01:32N 47°41' W 122°24'0 0.0
2015-Jul-29 01:26N 47°41' W 122°24'0 0.0
2015-Jul-29 00:32N 47°41' W 122°24'0 0.0
2015-Jul-29 00:26N 47°41' W 122°24'0 0.0
2015-Jul-28 23:32N 47°41' W 122°24'0 0.0
2015-Jul-28 23:26N 47°41' W 122°24'0 0.0
2015-Jul-28 22:32N 47°41' W 122°24'0 0.0
2015-Jul-28 22:20N 47°41' W 122°24'0 0.0
2015-Jul-28 21:32N 47°41' W 122°24'0 0.0
2015-Jul-28 21:20N 47°41' W 122°24'0 0.0
2015-Jul-28 20:32N 47°41' W 122°24'0 0.0
2015-Jul-28 20:20N 47°41' W 122°24'0 0.0
2015-Jul-28 19:32N 47°41' W 122°24'0 0.0
2015-Jul-28 19:05N 47°41' W 122°24'0 0.0
2015-Jul-28 18:32N 47°41' W 122°24'0 0.0
2015-Jul-28 18:29N 47°41' W 122°24'0 0.0
2015-Jul-28 17:26N 47°41' W 122°24'0 0.0
2015-Jul-28 15:19N 47°41' W 122°24'0 0.0
2015-Jul-28 15:19N 47°41' W 122°24'0 0.0
2015-Jul-27 22:37N 47°41' W 122°24'0 2.1
2015-Jul-27 22:33N 47°41' W 122°25'0 1.6
2015-Jul-27 22:27N 47°41' W 122°25'8 9.2
2015-Jul-27 21:34N 47°33' W 122°29'10 9.4
2015-Jul-27 20:29N 47°23' W 122°32'3 3.4
2015-Jul-27 19:33N 47°23' W 122°27'1 0.8
2015-Jul-27 18:32N 47°23' W 122°26'0 0.0
2015-Jul-27 17:29N 47°23' W 122°26'0 0.0
2015-Jul-27 06:33N 47°23' W 122°26'0 0.0
2015-Jul-27 05:34N 47°23' W 122°26'0 0.0
2015-Jul-27 04:34N 47°23' W 122°26'0 0.0
2015-Jul-27 03:34N 47°23' W 122°26'0 0.0
2015-Jul-27 02:34N 47°23' W 122°26'0 0.0
2015-Jul-27 01:31N 47°23' W 122°26'0 0.0
2015-Jul-27 00:31N 47°23' W 122°26'0 0.0
2015-Jul-26 06:21N 47°23' W 122°26'0 0.0
2015-Jul-26 05:33N 47°23' W 122°26'0 0.0
2015-Jul-26 04:33N 47°23' W 122°26'0 0.0
2015-Jul-26 03:33N 47°23' W 122°26'0 0.0
2015-Jul-26 02:33N 47°23' W 122°26'0 0.0
2015-Jul-26 01:33N 47°23' W 122°26'0 0.0
2015-Jul-26 00:16N 47°23' W 122°26'3 4.9
2015-Jul-25 23:34N 47°20' W 122°29'3 0.1
2015-Jul-24 02:33N 47°20' W 122°33'10 9.9
2015-Jul-24 01:33N 47°30' W 122°30'8 8.8
2015-Jul-24 00:42N 47°37' W 122°27'1 9.0
2015-Jul-24 00:33N 47°38' W 122°27'1 9.2
2015-Jul-24 00:27N 47°39' W 122°27'2 1.5
2015-Jul-23 23:07N 47°41' W 122°24'0 0.0
2015-Jul-23 22:25N 47°41' W 122°24'0 0.0
2015-Jul-23 21:28N 47°41' W 122°24'0 0.1
2015-Jul-23 21:24N 47°41' W 122°24'0 0.1
2015-Jul-23 20:33N 47°41' W 122°24'0 0.0
2015-Jul-23 20:24N 47°41' W 122°24'0 0.1
2015-Jul-23 19:22N 47°41' W 122°24'0 0.0
2015-Jul-23 19:07N 47°41' W 122°24'0 0.0
2015-Jul-23 18:31N 47°41' W 122°24'0 0.0
2015-Jul-23 18:22N 47°41' W 122°24'0 0.0
2015-Jul-23 16:31N 47°41' W 122°24'0 0.0
2015-Jul-23 16:31N 47°41' W 122°24'0 0.0
2015-Jul-23 15:31N 47°41' W 122°24'0 0.0
2015-Jul-23 15:31N 47°41' W 122°24'0 0.0
2015-Jul-23 14:31N 47°41' W 122°24'0 0.0
2015-Jul-23 14:31N 47°41' W 122°24'0 0.0
2015-Jul-22 20:25N 47°41' W 122°24'0 0.0
2015-Jul-22 19:43N 47°41' W 122°24'0 0.0
2015-Jul-21 23:18N 47°41' W 122°24'0 0.0
2015-Jul-21 23:18N 47°41' W 122°24'0 0.0
2015-Jul-21 22:30N 47°41' W 122°24'0 0.0
2015-Jul-21 22:18N 47°41' W 122°24'0 0.0
2015-Jul-21 21:33N 47°41' W 122°24'0 0.0
2015-Jul-21 21:33N 47°41' W 122°24'0 0.0
2015-Jul-21 20:33N 47°41' W 122°24'0 0.0
2015-Jul-21 20:33N 47°41' W 122°24'0 0.0
2015-Jul-21 19:33N 47°41' W 122°24'0 0.0
2015-Jul-21 19:27N 47°41' W 122°24'0 0.0
2015-Jul-21 18:33N 47°41' W 122°24'0 0.0
2015-Jul-21 18:27N 47°41' W 122°24'0 0.0
2015-Jul-21 17:33N 47°41' W 122°24'0 0.0
2015-Jul-21 17:27N 47°41' W 122°24'0 0.0
2015-Jul-21 16:33N 47°41' W 122°24'0 0.0
2015-Jul-21 16:27N 47°41' W 122°24'0 0.0
2015-Jul-21 15:33N 47°41' W 122°24'0 0.0
2015-Jul-21 15:21N 47°41' W 122°24'0 0.0
2015-Jul-21 01:33N 47°41' W 122°24'0 0.0
2015-Jul-21 01:24N 47°41' W 122°24'  
Track history (hours):
 
Tides and Currents Weather Stations Pressure Air Temp Water Temp Dewpoint Dewpoint Depression Visibility Wind Speed Wind Dir Waves Ship Positions

Akeeva

Owner: Cann, John P, Vancouver, WA. More information available from US FCC via Universal Licensing System and Coast Guard Vessel Documentation Center.

Last reported at 2015-Jul-30 23:20 UTC. Time now 2015-Jul-31 01:06 UTC.
Position N 47°41' W 122°24'.

Length 16 m.

Type: Pleasure craft. MMSI: 367391170.

Date/timePositionNaut miles runAvg speedWind from/ knotsBaromVisibWave heightAir tempDewpointWater temp
2015-Jul-30 23:20N 47°41' W 122°24'0 0.0
2015-Jul-30 22:43N 47°41' W 122°24'0 0.0
2015-Jul-29 21:08N 47°41' W 122°24'0 0.0
2015-Jul-29 21:08N 47°41' W 122°24'0 0.0
2015-Jul-29 20:32N 47°41' W 122°24'0 0.0
2015-Jul-29 20:29N 47°41' W 122°24'0 0.0
2015-Jul-29 19:32N 47°41' W 122°24'0 0.0
2015-Jul-29 18:38N 47°41' W 122°24'0 0.0
2015-Jul-29 18:32N 47°41' W 122°24'0 0.0
2015-Jul-29 18:23N 47°41' W 122°24'0 0.0
2015-Jul-29 17:29N 47°41' W 122°24'0 0.0
2015-Jul-29 17:23N 47°41' W 122°24'0 0.0
2015-Jul-29 02:29N 47°41' W 122°24'0 0.0
2015-Jul-29 02:26N 47°41' W 122°24'0 0.0
2015-Jul-29 01:32N 47°41' W 122°24'0 0.0
2015-Jul-29 01:26N 47°41' W 122°24'0 0.0
2015-Jul-29 00:32N 47°41' W 122°24'0 0.0
2015-Jul-29 00:26N 47°41' W 122°24'0 0.0
2015-Jul-28 23:32N 47°41' W 122°24'0 0.0
2015-Jul-28 23:26N 47°41' W 122°24'0 0.0
2015-Jul-28 22:32N 47°41' W 122°24'0 0.0
2015-Jul-28 22:20N 47°41' W 122°24'0 0.0
2015-Jul-28 21:32N 47°41' W 122°24'0 0.0
2015-Jul-28 21:20N 47°41' W 122°24'0 0.0
2015-Jul-28 20:32N 47°41' W 122°24'0 0.0
2015-Jul-28 20:20N 47°41' W 122°24'0 0.0
2015-Jul-28 19:32N 47°41' W 122°24'0 0.0
2015-Jul-28 19:05N 47°41' W 122°24'0 0.0
2015-Jul-28 18:32N 47°41' W 122°24'0 0.0
2015-Jul-28 18:29N 47°41' W 122°24'0 0.0
2015-Jul-28 17:26N 47°41' W 122°24'0 0.0
2015-Jul-28 15:19N 47°41' W 122°24'0 0.0
2015-Jul-28 15:19N 47°41' W 122°24'0 0.0
2015-Jul-27 22:37N 47°41' W 122°24'0 2.1
2015-Jul-27 22:33N 47°41' W 122°25'0 1.6
2015-Jul-27 22:27N 47°41' W 122°25'8 9.2
2015-Jul-27 21:34N 47°33' W 122°29'10 9.4
2015-Jul-27 20:29N 47°23' W 122°32'3 3.4
2015-Jul-27 19:33N 47°23' W 122°27'1 0.8
2015-Jul-27 18:32N 47°23' W 122°26'0 0.0
2015-Jul-27 17:29N 47°23' W 122°26'0 0.0
2015-Jul-27 06:33N 47°23' W 122°26'0 0.0
2015-Jul-27 05:34N 47°23' W 122°26'0 0.0
2015-Jul-27 04:34N 47°23' W 122°26'0 0.0
2015-Jul-27 03:34N 47°23' W 122°26'0 0.0
2015-Jul-27 02:34N 47°23' W 122°26'0 0.0
2015-Jul-27 01:31N 47°23' W 122°26'0 0.0
2015-Jul-27 00:31N 47°23' W 122°26'0 0.0
2015-Jul-26 06:21N 47°23' W 122°26'0 0.0
2015-Jul-26 05:33N 47°23' W 122°26'0 0.0
2015-Jul-26 04:33N 47°23' W 122°26'0 0.0
2015-Jul-26 03:33N 47°23' W 122°26'0 0.0
2015-Jul-26 02:33N 47°23' W 122°26'0 0.0
2015-Jul-26 01:33N 47°23' W 122°26'0 0.0
2015-Jul-26 00:16N 47°23' W 122°26'3 4.9
2015-Jul-25 23:34N 47°20' W 122°29'3 0.1
2015-Jul-24 02:33N 47°20' W 122°33'10 9.9
2015-Jul-24 01:33N 47°30' W 122°30'8 8.8
2015-Jul-24 00:42N 47°37' W 122°27'1 9.0
2015-Jul-24 00:33N 47°38' W 122°27'1 9.2
2015-Jul-24 00:27N 47°39' W 122°27'2 1.5
2015-Jul-23 23:07N 47°41' W 122°24'0 0.0
2015-Jul-23 22:25N 47°41' W 122°24'0 0.0
2015-Jul-23 21:28N 47°41' W 122°24'0 0.1
2015-Jul-23 21:24N 47°41' W 122°24'0 0.1
2015-Jul-23 20:33N 47°41' W 122°24'0 0.0
2015-Jul-23 20:24N 47°41' W 122°24'0 0.1
2015-Jul-23 19:22N 47°41' W 122°24'0 0.0
2015-Jul-23 19:07N 47°41' W 122°24'0 0.0
2015-Jul-23 18:31N 47°41' W 122°24'0 0.0
2015-Jul-23 18:22N 47°41' W 122°24'0 0.0
2015-Jul-23 16:31N 47°41' W 122°24'0 0.0
2015-Jul-23 16:31N 47°41' W 122°24'0 0.0
2015-Jul-23 15:31N 47°41' W 122°24'0 0.0
2015-Jul-23 15:31N 47°41' W 122°24'0 0.0
2015-Jul-23 14:31N 47°41' W 122°24'0 0.0
2015-Jul-23 14:31N 47°41' W 122°24'0 0.0
2015-Jul-22 20:25N 47°41' W 122°24'0 0.0
2015-Jul-22 19:43N 47°41' W 122°24'0 0.0
2015-Jul-21 23:18N 47°41' W 122°24'0 0.0
2015-Jul-21 23:18N 47°41' W 122°24'0 0.0
2015-Jul-21 22:30N 47°41' W 122°24'0 0.0
2015-Jul-21 22:18N 47°41' W 122°24'0 0.0
2015-Jul-21 21:33N 47°41' W 122°24'0 0.0
2015-Jul-21 21:33N 47°41' W 122°24'0 0.0
2015-Jul-21 20:33N 47°41' W 122°24'0 0.0
2015-Jul-21 20:33N 47°41' W 122°24'0 0.0
2015-Jul-21 19:33N 47°41' W 122°24'0 0.0
2015-Jul-21 19:27N 47°41' W 122°24'0 0.0
2015-Jul-21 18:33N 47°41' W 122°24'0 0.0
2015-Jul-21 18:27N 47°41' W 122°24'0 0.0
2015-Jul-21 17:33N 47°41' W 122°24'0 0.0
2015-Jul-21 17:27N 47°41' W 122°24'0 0.0
2015-Jul-21 16:33N 47°41' W 122°24'0 0.0
2015-Jul-21 16:27N 47°41' W 122°24'0 0.0
2015-Jul-21 15:33N 47°41' W 122°24'0 0.0
2015-Jul-21 15:21N 47°41' W 122°24'0 0.0
2015-Jul-21 01:33N 47°41' W 122°24'0 0.0
2015-Jul-21 01:24N 47°41' W 122°24'  

Dump ship's entire track history